Time;durP1;ratioP1;P1;durP2;ratioP2;P2;SDS_P1;SDS_P2;PMS_P1;PMS_P2;Temp;Humidity;BMP_temperature;BMP_pressure;BME280_temperature;BME280_humidity;BME280_pressure;Samples;Min_cycle;Max_cycle;Signal;HPM_P1;HPM_P2
2023/02/27 00:00:29;;;;;;;5.05;1.25;;;;;;;3.88;100.00;102877.50;5091845;28;20058;-50
2023/02/27 00:02:54;;;;;;;8.82;1.60;;;;;;;3.84;100.00;102884.78;5091753;28;20085;-51
2023/02/27 00:05:21;;;;;;;3.03;1.50;;;;;;;3.79;100.00;102891.34;5074418;28;20051;-51
2023/02/27 00:07:46;;;;;;;3.83;1.45;;;;;;;3.77;100.00;102882.59;5092052;28;20028;-49
2023/02/27 00:10:12;;;;;;;8.52;1.15;;;;;;;3.73;100.00;102882.75;5091940;28;20046;-49
2023/02/27 00:12:38;;;;;;;5.47;1.27;;;;;;;3.70;100.00;102880.25;5092030;28;20050;-49
2023/02/27 00:15:09;;;;;;;5.78;1.17;;;;;;;3.74;100.00;102888.97;5091534;28;20035;-52
2023/02/27 00:17:35;;;;;;;10.45;1.25;;;;;;;3.71;100.00;102899.75;5091820;28;20542;-50
2023/02/27 00:20:00;;;;;;;5.75;1.20;;;;;;;3.70;100.00;102892.72;5073825;28;20103;-50
2023/02/27 00:22:26;;;;;;;4.47;1.00;;;;;;;3.69;100.00;102893.69;5091444;28;20020;-50
2023/02/27 00:24:51;;;;;;;5.38;1.33;;;;;;;3.68;100.00;102895.47;5090864;28;20643;-52
2023/02/27 00:27:16;;;;;;;6.78;1.27;;;;;;;3.63;100.00;102891.34;5090715;28;20536;-50
2023/02/27 00:29:42;;;;;;;7.13;0.90;;;;;;;3.53;100.00;102885.69;5090460;28;20024;-50
2023/02/27 00:32:07;;;;;;;5.15;1.30;;;;;;;3.52;100.00;102878.63;5090847;28;20073;-51
2023/02/27 00:34:32;;;;;;;6.03;1.00;;;;;;;3.45;100.00;102879.91;5090536;28;20423;-50
2023/02/27 00:36:58;;;;;;;1.45;0.80;;;;;;;3.35;100.00;102881.41;5091148;28;20071;-50
2023/02/27 00:39:23;;;;;;;6.93;1.08;;;;;;;3.23;100.00;102874.94;5090306;28;20020;-50
2023/02/27 00:41:48;;;;;;;7.78;1.00;;;;;;;3.17;100.00;102872.63;5090859;28;20024;-51
2023/02/27 00:44:14;;;;;;;4.25;0.80;;;;;;;3.12;100.00;102878.19;5090313;28;20143;-49
2023/02/27 00:46:39;;;;;;;7.18;1.13;;;;;;;3.11;100.00;102875.59;5090498;28;20046;-51
2023/02/27 00:49:04;;;;;;;5.80;0.93;;;;;;;3.01;100.00;102880.56;5090461;28;20050;-50
2023/02/27 00:51:30;;;;;;;4.55;0.90;;;;;;;2.93;100.00;102875.66;5091003;28;20028;-51
2023/02/27 00:53:55;;;;;;;8.60;1.80;;;;;;;2.93;100.00;102885.44;5090278;28;20028;-51
2023/02/27 00:56:20;;;;;;;6.55;1.50;;;;;;;2.84;100.00;102886.78;5090352;28;20066;-49
2023/02/27 00:58:46;;;;;;;3.90;0.80;;;;;;;2.82;100.00;102889.53;5090246;28;20056;-49
2023/02/27 01:01:11;;;;;;;11.50;1.25;;;;;;;2.88;100.00;102880.38;5093329;28;20031;-49
2023/02/27 01:03:37;;;;;;;4.82;1.65;;;;;;;2.79;100.00;102884.38;5096357;28;20063;-51
2023/02/27 01:06:02;;;;;;;4.22;1.10;;;;;;;2.79;100.00;102883.50;5095206;28;20028;-48
2023/02/27 01:08:27;;;;;;;4.78;0.80;;;;;;;2.72;100.00;102880.31;5094511;28;20538;-49
2023/02/27 01:10:54;;;;;;;4.00;0.90;;;;;;;2.64;100.00;102890.50;5094331;28;20081;-49
2023/02/27 01:13:20;;;;;;;5.68;1.10;;;;;;;2.58;100.00;102885.47;5094575;28;20068;-50
2023/02/27 01:15:45;;;;;;;4.75;0.93;;;;;;;2.53;100.00;102892.88;5094144;28;20028;-48
2023/02/27 01:18:10;;;;;;;2.63;0.90;;;;;;;2.48;100.00;102884.28;5094395;28;20056;-53
2023/02/27 01:20:36;;;;;;;3.25;1.17;;;;;;;2.36;100.00;102881.28;5095135;28;20031;-53
2023/02/27 01:23:01;;;;;;;6.70;1.25;;;;;;;2.37;100.00;102890.09;5095823;28;20028;-50
2023/02/27 01:25:27;;;;;;;4.07;0.95;;;;;;;2.36;100.00;102880.44;5094368;28;20514;-49
2023/02/27 01:27:52;;;;;;;5.38;1.00;;;;;;;2.25;100.00;102883.63;5076409;28;20036;-49
2023/02/27 01:30:17;;;;;;;8.27;1.00;;;;;;;2.21;100.00;102884.72;5094538;28;20058;-47
2023/02/27 01:32:43;;;;;;;9.43;1.17;;;;;;;2.21;100.00;102884.72;5094258;28;20055;-49
2023/02/27 01:35:08;;;;;;;5.53;1.30;;;;;;;2.19;100.00;102883.94;5076323;28;20028;-47
2023/02/27 01:37:34;;;;;;;3.92;0.90;;;;;;;2.17;100.00;102880.50;5094262;28;20024;-49
2023/02/27 01:39:59;;;;;;;5.65;0.85;;;;;;;2.19;100.00;102879.50;5094842;28;20035;-48
2023/02/27 01:42:27;;;;;;;8.15;1.00;;;;;;;2.18;100.00;102884.88;5094539;28;20021;-51
2023/02/27 01:45:11;;;;;;;9.55;1.35;;;;;;;2.16;100.00;102884.13;5094351;28;20515;-48
2023/02/27 01:47:49;;;;;;;3.28;1.23;;;;;;;2.16;100.00;102887.63;5094669;28;20032;-49
2023/02/27 01:50:14;;;;;;;;;;;;;;;2.15;100.00;102877.06;5060109;28;20577;-49
2023/02/27 01:52:41;;;;;;;3.55;1.05;;;;;;;2.13;100.00;102878.94;5076822;28;19983;-49
2023/02/27 01:55:07;;;;;;;4.53;1.27;;;;;;;2.15;100.00;102882.38;5076785;28;20021;-50
2023/02/27 01:57:34;;;;;;;3.08;0.98;;;;;;;2.22;100.00;102878.47;5095539;28;20024;-50
2023/02/27 01:59:59;;;;;;;4.25;1.00;;;;;;;2.19;100.00;102879.50;5077372;28;20020;-51
2023/02/27 02:02:28;;;;;;;5.78;0.88;;;;;;;2.18;100.00;102875.09;5096337;28;20024;-50
2023/02/27 02:04:54;;;;;;;3.80;1.00;;;;;;;2.19;100.00;102878.63;5060441;28;20388;-52
2023/02/27 02:07:20;;;;;;;7.70;1.08;;;;;;;2.20;100.00;102875.03;5096892;28;20024;-51
2023/02/27 02:09:54;;;;;;;5.88;1.20;;;;;;;2.16;100.00;102877.00;5095444;28;20036;-49
2023/02/27 02:12:23;;;;;;;5.45;1.20;;;;;;;2.18;100.00;102877.75;5058793;28;20368;-49
2023/02/27 02:14:49;;;;;;;5.68;1.15;;;;;;;2.15;100.00;102885.03;5094401;28;20042;-50
2023/02/27 02:17:46;;;;;;;6.40;1.20;;;;;;;2.21;100.00;102879.41;5075515;28;20028;-49
2023/02/27 02:20:55;;;;;;;3.72;0.80;;;;;;;2.19;100.00;102889.25;5093276;28;20486;-49
2023/02/27 02:23:42;;;;;;;5.72;1.45;;;;;;;2.16;100.00;102889.44;5065593;28;20044;-49
2023/02/27 02:26:19;;;;;;;6.10;0.77;;;;;;;2.14;100.00;102885.97;5093093;28;20490;-49
2023/02/27 02:29:14;;;;;;;8.88;1.33;;;;;;;2.08;100.00;102886.25;5093572;28;20055;-50
2023/02/27 02:31:54;;;;;;;6.05;0.90;;;;;;;2.07;100.00;102887.22;5084281;28;20044;-49
2023/02/27 02:34:46;;;;;;;5.57;1.23;;;;;;;1.98;100.00;102886.72;5076283;28;20040;-49
2023/02/27 02:37:36;;;;;;;2.85;0.98;;;;;;;1.92;100.00;102881.75;5075647;28;20225;-49
2023/02/27 02:40:13;;;;;;;5.10;1.20;;;;;;;1.87;100.00;102878.44;5094266;28;20103;-51
2023/02/27 02:42:47;;;;;;;5.53;1.30;;;;;;;1.81;100.00;102878.72;5075486;28;20028;-49
2023/02/27 02:45:17;;;;;;;8.68;1.48;;;;;;;1.76;100.00;102880.75;5092851;28;20032;-49
2023/02/27 02:48:21;;;;;;;6.22;1.50;;;;;;;1.67;100.00;102881.19;5092759;28;20555;-51
2023/02/27 02:50:59;;;;;;;16.50;1.55;;;;;;;1.57;100.00;102885.22;5092646;28;20028;-49
2023/02/27 02:53:24;;;;;;;4.35;1.35;;;;;;;1.49;100.00;102883.78;5093021;28;20016;-51
2023/02/27 02:55:55;;;;;;;5.18;1.40;;;;;;;1.43;100.00;102892.06;5092632;28;20047;-50
2023/02/27 02:58:35;;;;;;;11.82;1.30;;;;;;;1.41;100.00;102888.59;5074895;28;20028;-51
2023/02/27 03:01:08;;;;;;;5.93;1.35;;;;;;;1.36;100.00;102890.59;5093054;28;20047;-51
2023/02/27 03:03:37;;;;;;;3.15;1.23;;;;;;;1.32;100.00;102886.41;5092446;28;20114;-50
2023/02/27 03:06:07;;;;;;;8.93;1.58;;;;;;;1.28;100.00;102880.34;5073911;28;20024;-49
2023/02/27 03:08:37;;;;;;;6.93;1.20;;;;;;;1.25;100.00;102879.66;5074136;28;20174;-48
2023/02/27 03:11:03;;;;;;;3.72;1.63;;;;;;;1.20;100.00;102886.97;5073961;28;20032;-49
2023/02/27 03:13:36;;;;;;;11.07;1.33;;;;;;;1.16;100.00;102880.94;5073911;28;20032;-48
2023/02/27 03:16:14;;;;;;;4.53;1.45;;;;;;;1.11;100.00;102888.25;5134162;22;20507;-49
2023/02/27 03:18:46;;;;;;;6.30;1.20;;;;;;;1.08;100.00;102894.56;5070087;28;20711;-49
2023/02/27 03:21:36;;;;;;;5.53;1.65;;;;;;;1.13;100.00;102889.00;5069937;28;20032;-48
2023/02/27 03:24:05;;;;;;;4.90;1.15;;;;;;;1.09;100.00;102892.75;5029476;28;20072;-50
2023/02/27 03:26:38;;;;;;;7.40;1.20;;;;;;;1.04;100.00;102903.56;5070279;28;20039;-49
2023/02/27 03:29:18;;;;;;;4.85;1.40;;;;;;;1.00;100.00;102904.66;5070268;28;20048;-49
2023/02/27 03:31:56;;;;;;;2.70;1.00;;;;;;;0.99;100.00;102900.25;5070472;28;20173;-49
2023/02/27 03:34:26;;;;;;;4.57;1.20;;;;;;;0.89;100.00;102896.28;5050315;28;20475;-48
2023/02/27 03:36:57;;;;;;;6.25;1.58;;;;;;;0.89;100.00;102904.25;5050258;28;20374;-49
2023/02/27 03:39:51;;;;;;;5.93;1.80;;;;;;;0.84;100.00;102898.28;5051319;28;20032;-50
2023/02/27 03:42:39;;;;;;;3.85;1.48;;;;;;;0.81;100.00;102901.06;5041999;28;20049;-48
2023/02/27 03:45:06;;;;;;;;;;;;;;;0.76;100.00;102897.78;5050582;28;20033;-48
2023/02/27 03:47:32;;;;;;;5.05;1.50;;;;;;;0.76;100.00;102903.06;5050022;28;19931;-52
2023/02/27 03:49:57;;;;;;;11.20;1.35;;;;;;;0.73;100.00;102898.75;5052558;28;20459;-49
2023/02/27 03:52:24;;;;;;;7.82;1.70;;;;;;;0.77;100.00;102907.47;5051283;28;20025;-49
2023/02/27 03:54:55;;;;;;;3.90;1.65;;;;;;;0.72;100.00;102902.34;5051455;28;20017;-51
2023/02/27 03:57:21;;;;;;;5.93;1.55;;;;;;;0.71;100.00;102897.09;5051430;28;20074;-50
2023/02/27 03:59:46;;;;;;;7.80;1.30;;;;;;;0.76;100.00;102900.41;5051070;28;20041;-49
2023/02/27 04:02:12;;;;;;;10.95;1.70;;;;;;;0.71;100.00;102899.75;5049701;28;20040;-50
2023/02/27 04:04:39;;;;;;;6.55;1.30;;;;;;;0.71;100.00;102894.47;5049665;28;20029;-50
2023/02/27 04:07:22;;;;;;;3.45;1.23;;;;;;;0.67;100.00;102892.88;5051184;28;20474;-52
2023/02/27 04:09:57;;;;;;;11.10;2.20;;;;;;;0.63;100.00;102890.38;5049908;28;20036;-49
2023/02/27 04:12:59;;;;;;;6.80;1.30;;;;;;;0.57;100.00;102893.28;5049653;28;20036;-49
2023/02/27 04:15:52;;;;;;;5.20;1.20;;;;;;;0.58;100.00;102895.00;5050960;28;20036;-49
2023/02/27 04:18:38;;;;;;;2.67;1.13;;;;;;;0.61;100.00;102888.72;5050662;28;20037;-51
2023/02/27 04:21:15;;;;;;;4.15;1.45;;;;;;;0.60;100.00;102903.72;5050827;28;20033;-49
2023/02/27 04:23:43;;;;;;;7.30;1.38;;;;;;;0.60;100.00;102911.69;5050778;28;20113;-50
2023/02/27 04:26:14;;;;;;;;;;;;;;;0.57;100.00;102903.88;5051485;28;20074;-48
2023/02/27 04:28:49;;;;;;;2.42;1.48;;;;;;;0.53;100.00;102920.84;5050855;28;19909;-49
2023/02/27 04:31:19;;;;;;;4.20;1.38;;;;;;;0.47;100.00;102907.84;5050696;28;20112;-50
2023/02/27 04:33:53;;;;;;;5.53;1.65;;;;;;;0.46;100.00;102922.03;5049080;28;20395;-50
2023/02/27 04:36:40;;;;;;;6.07;1.52;;;;;;;0.43;100.00;102922.16;5050396;28;20028;-52
2023/02/27 04:39:08;;;;;;;13.13;1.60;;;;;;;0.48;100.00;102919.31;5032488;28;20501;-51
2023/02/27 04:41:50;;;;;;;4.93;1.70;;;;;;;0.49;100.00;102921.03;5049082;28;20159;-50
2023/02/27 04:44:17;;;;;;;5.03;1.25;;;;;;;0.42;100.00;102931.91;5050661;28;20032;-50
2023/02/27 04:46:44;;;;;;;9.47;1.50;;;;;;;0.40;100.00;102927.59;5049608;28;20025;-50
2023/02/27 04:49:17;;;;;;;4.97;1.60;;;;;;;0.44;100.00;102926.53;5049159;28;20279;-48
2023/02/27 04:51:57;;;;;;;2.78;1.25;;;;;;;0.42;100.00;102926.59;5050888;28;20430;-49
2023/02/27 04:54:44;;;;;;;9.30;1.65;;;;;;;0.40;100.00;102930.25;5049481;28;20489;-49
2023/02/27 04:57:13;;;;;;;9.93;2.00;;;;;;;0.35;100.00;102924.28;5049609;28;20033;-51
2023/02/27 04:59:48;;;;;;;3.35;1.50;;;;;;;0.33;100.00;102936.72;5050655;28;20025;-50
2023/02/27 05:02:41;;;;;;;7.63;1.95;;;;;;;0.42;100.00;102941.63;5052492;28;20040;-49
2023/02/27 05:05:14;;;;;;;9.90;2.10;;;;;;;0.46;100.00;102932.63;5048562;28;20048;-49
2023/02/27 05:07:46;;;;;;;3.15;1.30;;;;;;;0.46;100.00;102934.41;5053195;28;20033;-49
2023/02/27 05:10:16;;;;;;;5.78;1.20;;;;;;;0.46;100.00;102932.63;5052770;28;20033;-49
2023/02/27 05:12:51;;;;;;;9.25;1.80;;;;;;;0.48;100.00;102936.06;5050107;28;20475;-49
2023/02/27 05:15:20;;;;;;;16.20;1.80;;;;;;;0.52;100.00;102942.09;5049380;28;20115;-49
2023/02/27 05:18:03;;;;;;;8.27;1.50;;;;;;;0.55;100.00;102944.59;5050543;28;20049;-50
2023/02/27 05:20:52;;;;;;;6.30;2.22;;;;;;;0.53;100.00;102944.69;5049053;28;20029;-49
2023/02/27 05:23:27;;;;;;;13.27;1.70;;;;;;;0.53;100.00;102936.75;5037608;28;20060;-52
2023/02/27 05:26:13;;;;;;;10.80;2.08;;;;;;;0.54;100.00;102940.25;5050262;28;20036;-50
2023/02/27 05:28:53;;;;;;;5.50;1.80;;;;;;;0.56;100.00;102944.56;5048994;28;20029;-51
2023/02/27 05:31:23;;;;;;;9.68;1.73;;;;;;;0.60;100.00;102948.78;5049034;28;20112;-49
2023/02/27 05:34:09;;;;;;;8.85;2.38;;;;;;;0.60;100.00;102939.97;5050203;28;20114;-50
2023/02/27 05:37:02;;;;;;;7.00;1.85;;;;;;;0.55;100.00;102947.25;5048944;28;20021;-52
2023/02/27 05:39:29;;;;;;;7.35;1.67;;;;;;;0.55;100.00;102947.25;5046654;28;20454;-49
2023/02/27 05:42:04;;;;;;;13.65;2.17;;;;;;;0.55;100.00;102940.16;5050837;28;20519;-49
2023/02/27 05:44:34;;;;;;;4.88;1.73;;;;;;;0.60;100.00;102948.78;5048850;28;20029;-50
2023/02/27 05:47:11;;;;;;;11.50;2.33;;;;;;;0.65;100.00;102946.78;5050421;28;20021;-51
2023/02/27 05:49:43;;;;;;;4.40;1.67;;;;;;;0.67;100.00;102944.09;5052373;28;20036;-49
2023/02/27 05:52:11;;;;;;;6.88;2.28;;;;;;;0.61;100.00;102936.41;5052469;28;20075;-50
2023/02/27 05:54:51;;;;;;;4.25;1.65;;;;;;;0.60;100.00;102943.47;5052139;28;20057;-51
2023/02/27 05:57:29;;;;;;;3.78;2.00;;;;;;;0.55;100.00;102953.41;5053648;28;20024;-49
2023/02/27 06:00:19;;;;;;;8.10;2.38;;;;;;;0.61;100.00;102963.78;5053422;28;20027;-49
2023/02/27 06:02:45;;;;;;;9.50;2.42;;;;;;;0.62;100.00;102959.31;5051997;28;20029;-51
2023/02/27 06:05:12;;;;;;;7.43;2.13;;;;;;;0.65;100.00;102960.03;5053433;28;20100;-50
2023/02/27 06:07:38;;;;;;;4.88;2.28;;;;;;;0.63;100.00;102961.94;5052007;28;20106;-50
2023/02/27 06:10:04;;;;;;;11.73;2.20;;;;;;;0.68;100.00;102963.50;5052956;28;20021;-49
2023/02/27 06:12:29;;;;;;;16.77;2.28;;;;;;;0.63;100.00;102967.22;5053288;28;20040;-49
2023/02/27 06:14:54;;;;;;;14.93;2.95;;;;;;;0.57;100.00;102969.25;5052730;28;20017;-50
2023/02/27 06:17:20;;;;;;;9.23;2.30;;;;;;;0.63;100.00;102972.53;5052722;28;20045;-51
2023/02/27 06:19:45;;;;;;;7.32;1.80;;;;;;;0.65;100.00;102973.28;5052658;28;20053;-50
2023/02/27 06:22:11;;;;;;;14.27;2.05;;;;;;;0.61;100.00;102979.66;5052739;28;20033;-48
2023/02/27 06:24:36;;;;;;;4.63;1.80;;;;;;;0.69;100.00;102981.16;5052613;28;20056;-49
2023/02/27 06:27:01;;;;;;;5.60;1.67;;;;;;;0.68;100.00;102979.41;5052738;28;20480;-50
2023/02/27 06:29:27;;;;;;;6.43;2.05;;;;;;;0.62;100.00;102986.69;5052333;28;20337;-51
2023/02/27 06:31:52;;;;;;;5.75;2.15;;;;;;;0.64;100.00;102974.25;5052498;28;20029;-52
2023/02/27 06:34:17;;;;;;;7.00;1.60;;;;;;;0.69;100.00;102989.09;5052664;28;20498;-50
2023/02/27 06:36:43;;;;;;;10.65;1.95;;;;;;;0.69;100.00;102991.75;5052446;28;20024;-51
2023/02/27 06:39:08;;;;;;;8.65;1.67;;;;;;;0.70;100.00;102986.34;5052589;28;20025;-53
2023/02/27 06:41:33;;;;;;;6.45;1.60;;;;;;;0.74;100.00;102990.63;5052664;28;20025;-50
2023/02/27 06:43:59;;;;;;;9.02;1.95;;;;;;;0.81;100.00;102996.50;5052835;28;20036;-50
2023/02/27 06:46:24;;;;;;;9.73;1.73;;;;;;;0.83;100.00;103000.81;5052395;28;20128;-49
2023/02/27 06:48:49;;;;;;;8.65;1.83;;;;;;;0.90;100.00;103006.72;5052369;28;20483;-50
2023/02/27 06:51:15;;;;;;;11.02;1.95;;;;;;;0.92;100.00;103001.34;5052136;28;20029;-52
2023/02/27 06:53:40;;;;;;;6.15;1.80;;;;;;;0.95;100.00;103011.81;5052553;28;20051;-52
2023/02/27 06:56:06;;;;;;;5.85;1.88;;;;;;;0.93;100.00;103011.88;5052179;28;20017;-49
2023/02/27 06:58:31;;;;;;;10.23;2.53;;;;;;;0.93;100.00;103011.88;5052286;28;20102;-49
2023/02/27 07:01:00;;;;;;;12.88;2.10;;;;;;;1.04;100.00;103008.78;5052129;28;20021;-52
2023/02/27 07:03:25;;;;;;;9.60;2.45;;;;;;;1.14;100.00;103019.84;5053337;28;20056;-52
2023/02/27 07:05:51;;;;;;;6.68;2.20;;;;;;;1.21;100.00;103022.16;5053054;28;20052;-51
2023/02/27 07:08:16;;;;;;;11.20;2.80;;;;;;;1.40;100.00;103032.81;5051766;28;20044;-51
2023/02/27 07:10:45;;;;;;;12.57;2.53;;;;;;;1.71;100.00;103032.31;5052663;28;20445;-50
2023/02/27 07:13:14;;;;;;;12.25;2.30;;;;;;;2.05;100.00;103029.84;5052723;28;20047;-49
2023/02/27 07:15:39;;;;;;;;;;;;;;;2.63;100.00;103032.31;5053374;28;20056;-50
2023/02/27 07:18:04;;;;;;;6.50;1.80;;;;;;;3.21;100.00;103033.81;5053127;28;19963;-50
2023/02/27 07:20:30;;;;;;;11.80;2.55;;;;;;;3.56;100.00;103029.31;5052152;28;20033;-50
2023/02/27 07:22:55;;;;;;;6.43;2.03;;;;;;;3.98;100.00;103035.88;5053330;28;20081;-50
2023/02/27 07:25:20;;;;;;;5.22;1.60;;;;;;;4.28;100.00;103019.13;5053027;28;20495;-52
2023/02/27 07:27:48;;;;;;;17.10;2.60;;;;;;;4.35;100.00;103020.50;5052391;28;20383;-51
2023/02/27 07:30:14;;;;;;;6.95;2.00;;;;;;;4.56;100.00;103027.25;5052510;28;20064;-51
2023/02/27 07:32:39;;;;;;;9.77;2.25;;;;;;;4.60;100.00;103019.91;5050444;28;20060;-53
2023/02/27 07:35:05;;;;;;;9.43;2.25;;;;;;;4.37;100.00;103016.78;5051155;28;20237;-50
2023/02/27 07:37:31;;;;;;;8.52;3.40;;;;;;;4.11;100.00;103015.59;5051602;28;20032;-50
2023/02/27 07:39:56;;;;;;;41.17;11.75;;;;;;;3.79;100.00;103021.84;5050326;28;20475;-51
2023/02/27 07:42:21;;;;;;;59.83;14.80;;;;;;;3.60;100.00;103024.66;5050379;28;20433;-50
2023/02/27 07:44:47;;;;;;;41.50;11.15;;;;;;;3.40;100.00;103025.75;5050226;28;20032;-49
2023/02/27 07:47:12;;;;;;;16.15;5.25;;;;;;;3.30;100.00;103031.53;5050884;28;20055;-51
2023/02/27 07:49:37;;;;;;;11.52;4.50;;;;;;;3.21;100.00;103036.47;5050248;28;20036;-50
2023/02/27 07:52:03;;;;;;;15.25;3.70;;;;;;;3.34;100.00;103034.88;5050398;28;20039;-52
2023/02/27 07:54:28;;;;;;;14.93;3.78;;;;;;;3.97;100.00;103036.81;5050994;28;20031;-49
2023/02/27 07:56:53;;;;;;;9.82;3.10;;;;;;;4.89;100.00;103039.53;5050459;28;20533;-49
2023/02/27 07:59:19;;;;;;;11.95;2.67;;;;;;;6.12;100.00;103029.31;5050723;28;20025;-50
2023/02/27 08:01:44;;;;;;;17.23;4.28;;;;;;;7.14;100.00;103035.00;5050880;28;20044;-52
2023/02/27 08:04:09;;;;;;;11.75;2.80;;;;;;;8.37;95.94;103026.19;5051267;28;20029;-50
2023/02/27 08:06:35;;;;;;;19.13;4.93;;;;;;;10.18;79.84;103025.53;5050762;28;20071;-51
2023/02/27 08:09:00;;;;;;;15.68;5.00;;;;;;;11.16;70.47;103029.91;5050723;28;20108;-49
2023/02/27 08:11:25;;;;;;;22.52;5.65;;;;;;;12.01;63.56;103029.63;5048690;28;20049;-50
2023/02/27 08:13:51;;;;;;;19.48;4.13;;;;;;;12.79;57.38;103023.44;5050660;28;20391;-53
2023/02/27 08:16:16;;;;;;;18.50;3.58;;;;;;;13.13;54.42;103032.78;5050141;28;20556;-49
2023/02/27 08:18:41;;;;;;;15.13;3.60;;;;;;;13.51;52.74;103036.44;5050444;28;20112;-51
2023/02/27 08:21:07;;;;;;;19.77;5.78;;;;;;;14.15;50.07;103037.41;5050707;28;20123;-50
2023/02/27 08:23:33;;;;;;;17.40;4.32;;;;;;;14.22;48.61;103029.53;5050744;28;20025;-49
2023/02/27 08:25:59;;;;;;;17.33;3.85;;;;;;;13.43;47.76;103036.34;5049113;28;20543;-51
2023/02/27 08:28:26;;;;;;;22.92;5.75;;;;;;;12.74;48.71;103035.56;5050602;28;20116;-50
2023/02/27 08:30:52;;;;;;;37.55;7.97;;;;;;;13.01;49.17;103033.13;5050373;28;20044;-52
2023/02/27 08:33:17;;;;;;;31.60;7.38;;;;;;;13.43;48.20;103036.34;5050048;28;20025;-51
2023/02/27 08:35:42;;;;;;;34.58;8.50;;;;;;;13.61;48.21;103041.81;5050423;28;20028;-52
2023/02/27 08:38:08;;;;;;;51.17;10.98;;;;;;;14.36;46.36;103047.13;5050356;28;20032;-50
2023/02/27 08:40:33;;;;;;;39.50;9.52;;;;;;;14.84;44.30;103045.91;5050452;28;20021;-53
2023/02/27 08:42:59;;;;;;;29.63;6.10;;;;;;;15.00;44.06;103048.75;5049878;28;20037;-50
2023/02/27 08:45:24;;;;;;;23.95;5.53;;;;;;;14.82;44.05;103048.78;5050164;28;20021;-49
2023/02/27 08:47:49;;;;;;;29.55;7.05;;;;;;;15.31;42.96;103053.75;5049756;28;20056;-53
2023/02/27 08:50:16;;;;;;;30.85;8.68;;;;;;;15.42;42.07;103049.91;5049862;28;20089;-50
2023/02/27 08:52:41;;;;;;;22.88;4.13;;;;;;;15.99;40.49;103053.78;5050073;28;20036;-52
2023/02/27 08:55:07;;;;;;;18.40;4.00;;;;;;;15.79;39.38;103063.19;5050055;28;20021;-50
2023/02/27 08:57:32;;;;;;;16.00;3.20;;;;;;;14.62;40.96;103058.09;5049851;28;20044;-53
2023/02/27 08:59:57;;;;;;;15.82;2.97;;;;;;;13.31;43.36;103057.28;5050061;28;20087;-51
2023/02/27 09:02:25;;;;;;;15.38;3.83;;;;;;;13.08;45.44;103054.00;5049747;28;20029;-50
2023/02/27 09:04:53;;;;;;;21.35;4.07;;;;;;;13.70;44.93;103056.31;5050174;28;20025;-51
2023/02/27 09:07:19;;;;;;;17.52;3.08;;;;;;;14.75;43.59;103055.00;5049826;28;20029;-49
2023/02/27 09:09:44;;;;;;;15.25;2.67;;;;;;;15.49;41.63;103062.69;5048321;28;20037;-51
2023/02/27 09:12:10;;;;;;;15.65;2.92;;;;;;;15.61;40.59;103065.94;5050797;28;20037;-51
2023/02/27 09:14:36;;;;;;;17.60;3.13;;;;;;;15.94;40.30;103061.56;5049805;28;20029;-56
2023/02/27 09:17:01;;;;;;;13.93;2.92;;;;;;;16.72;38.30;103062.28;5049625;28;20057;-51
2023/02/27 09:19:26;;;;;;;18.35;2.58;;;;;;;16.96;37.24;103064.22;5049813;28;20032;-50
2023/02/27 09:21:52;;;;;;;10.75;1.77;;;;;;;17.20;36.66;103064.19;5050127;28;20082;-50
2023/02/27 09:24:17;;;;;;;10.05;2.55;;;;;;;16.74;38.15;103061.09;5054014;28;20112;-51
2023/02/27 09:26:42;;;;;;;12.65;2.70;;;;;;;17.29;36.03;103068.59;5054093;28;20029;-50
2023/02/27 09:29:08;;;;;;;10.82;2.00;;;;;;;16.84;36.69;103069.97;5054059;28;20029;-50
2023/02/27 09:31:33;;;;;;;15.93;3.20;;;;;;;16.49;36.74;103065.66;5053536;28;20090;-50
2023/02/27 09:34:00;;;;;;;15.82;2.20;;;;;;;16.38;36.07;103069.53;5053267;28;20445;-49
2023/02/27 09:36:26;;;;;;;12.90;1.87;;;;;;;16.24;36.39;103062.00;5053820;28;20028;-52
2023/02/27 09:38:51;;;;;;;8.95;1.98;;;;;;;15.76;36.66;103074.38;5053182;28;20283;-49
2023/02/27 09:41:28;;;;;;;7.53;1.40;;;;;;;14.41;38.43;103082.75;5052963;28;20021;-50
2023/02/27 09:43:53;;;;;;;11.25;1.83;;;;;;;13.44;41.00;103072.34;5051747;28;20108;-49
2023/02/27 09:46:20;;;;;;;6.07;1.10;;;;;;;12.96;41.70;103066.00;5052775;28;20432;-50
2023/02/27 09:48:51;;;;;;;21.25;2.47;;;;;;;12.79;43.46;103070.25;5052944;28;20071;-49
2023/02/27 09:51:18;;;;;;;10.55;2.00;;;;;;;13.04;44.08;103071.53;5053070;28;20187;-49
2023/02/27 09:53:46;;;;;;;10.15;1.38;;;;;;;13.21;43.94;103078.03;5052699;28;20535;-49
2023/02/27 09:56:24;;;;;;;7.72;1.65;;;;;;;13.24;44.34;103071.50;5052812;28;20040;-50
2023/02/27 09:59:00;;;;;;;9.60;2.10;;;;;;;13.12;45.32;103079.75;5052483;28;20028;-52
2023/02/27 10:01:31;;;;;;;9.38;1.60;;;;;;;13.36;45.25;103079.31;5052832;28;20104;-50
2023/02/27 10:04:37;;;;;;;8.18;1.48;;;;;;;13.14;46.32;103079.63;5051310;28;20033;-52
2023/02/27 10:07:26;;;;;;;11.40;2.45;;;;;;;12.66;47.51;103092.13;5052225;28;20029;-48
2023/02/27 10:10:35;;;;;;;13.38;2.58;;;;;;;12.40;48.99;103089.13;5050923;28;20040;-49
2023/02/27 10:13:06;;;;;;;8.52;2.22;;;;;;;11.71;49.85;103088.97;5051235;28;20052;-50
2023/02/27 10:15:40;;;;;;;14.48;3.05;;;;;;;11.46;51.59;103088.44;5050852;28;20102;-50
2023/02/27 10:18:09;;;;;;;13.80;2.20;;;;;;;10.94;53.13;103093.72;5052391;28;20040;-52
2023/02/27 10:20:40;;;;;;;12.48;1.98;;;;;;;10.19;55.11;103083.75;5052554;28;20037;-52
2023/02/27 10:23:12;;;;;;;10.70;2.28;;;;;;;9.48;57.84;103085.84;5051301;28;20032;-50
2023/02/27 10:25:44;;;;;;;9.50;1.90;;;;;;;8.98;60.59;103090.59;5051135;28;20028;-50
2023/02/27 10:28:20;;;;;;;12.43;2.00;;;;;;;8.92;61.34;103073.09;5052351;28;20430;-50
2023/02/27 10:30:48;;;;;;;14.43;2.17;;;;;;;8.82;61.90;103080.16;5052252;28;20055;-50
2023/02/27 10:33:17;;;;;;;9.30;2.00;;;;;;;8.45;63.69;103076.63;5053152;28;20032;-49
2023/02/27 10:35:44;;;;;;;8.13;2.20;;;;;;;8.17;66.72;103075.13;5055298;28;20451;-49
2023/02/27 10:38:19;;;;;;;11.27;2.33;;;;;;;7.92;69.43;103071.50;5055799;28;20498;-49
2023/02/27 10:40:45;;;;;;;10.95;1.92;;;;;;;7.61;70.22;103084.41;5054318;28;20433;-48
2023/02/27 10:43:15;;;;;;;5.75;1.60;;;;;;;7.43;70.26;103080.34;5054168;28;20029;-49
2023/02/27 10:45:42;;;;;;;11.45;3.00;;;;;;;7.57;71.89;103080.22;5052132;28;20425;-49
2023/02/27 10:48:09;;;;;;;10.13;2.40;;;;;;;7.66;69.87;103076.91;5052188;28;20035;-50
2023/02/27 10:50:38;;;;;;;7.25;1.75;;;;;;;7.38;67.96;103072.59;5050841;28;20071;-50
2023/02/27 10:53:15;;;;;;;7.10;1.65;;;;;;;6.94;69.08;103072.97;5051882;28;20059;-50
2023/02/27 10:55:41;;;;;;;12.15;2.40;;;;;;;6.81;71.60;103073.78;5051010;28;20105;-52
2023/02/27 10:58:07;;;;;;;13.25;2.75;;;;;;;6.82;74.12;103072.84;5050272;28;20041;-50
2023/02/27 11:00:55;;;;;;;7.95;2.22;;;;;;;7.20;73.71;103064.00;5051481;28;20078;-50
2023/02/27 11:03:21;;;;;;;;;;;;;;;7.06;71.55;103066.78;5050997;28;20148;-49
2023/02/27 11:06:08;;;;;;;9.32;1.95;;;;;;;7.21;71.97;103071.09;5050113;28;19995;-51
2023/02/27 11:08:35;;;;;;;9.70;2.08;;;;;;;7.62;69.17;103064.69;5051645;28;20065;-50
2023/02/27 11:11:10;;;;;;;8.43;1.27;;;;;;;7.45;65.46;103060.50;5051350;28;20032;-49
2023/02/27 11:13:41;;;;;;;8.60;1.50;;;;;;;7.10;66.44;103062.94;5051864;28;20467;-49
2023/02/27 11:16:08;;;;;;;8.40;1.95;;;;;;;6.79;68.58;103048.97;5049933;28;20459;-50
2023/02/27 11:18:35;;;;;;;7.05;1.60;;;;;;;6.66;69.63;103057.88;5051349;28;20025;-50
2023/02/27 11:21:12;;;;;;;10.15;2.10;;;;;;;6.49;69.73;103056.34;5051007;28;20064;-51
2023/02/27 11:23:48;;;;;;;4.40;1.30;;;;;;;6.37;69.54;103048.16;5051091;28;20027;-49
2023/02/27 11:26:25;;;;;;;11.10;1.75;;;;;;;6.79;67.77;103037.38;5049757;28;20314;-51
2023/02/27 11:29:10;;;;;;;7.55;1.30;;;;;;;7.46;65.45;103040.78;5051439;28;20017;-52
2023/02/27 11:31:36;;;;;;;8.57;1.48;;;;;;;8.01;61.67;103030.63;5051598;28;20104;-49
2023/02/27 11:34:03;;;;;;;5.55;1.20;;;;;;;8.27;62.05;103043.97;5049890;28;20480;-51
2023/02/27 11:36:41;;;;;;;9.20;1.67;;;;;;;8.52;60.03;103043.88;5050118;28;20499;-51
2023/02/27 11:39:21;;;;;;;4.25;0.90;;;;;;;8.83;57.33;103029.97;5051063;28;20368;-52